sensor_id;sensor_type;location;lat;lon;timestamp;pressure;altitude;pressure_sealevel;temperature;humidity
7480;BME280;3781;42.272;22.658;2023-02-03T00:00:24;94817.94;;;1.51;100.00
7480;BME280;3781;42.272;22.658;2023-02-03T00:02:53;94804.84;;;1.58;100.00
7480;BME280;3781;42.272;22.658;2023-02-03T00:05:20;94801.81;;;1.67;100.00
7480;BME280;3781;42.272;22.658;2023-02-03T00:07:48;94785.84;;;1.79;100.00
7480;BME280;3781;42.272;22.658;2023-02-03T00:10:15;94768.94;;;1.92;100.00
7480;BME280;3781;42.272;22.658;2023-02-03T00:12:47;94772.97;;;1.80;100.00
7480;BME280;3781;42.272;22.658;2023-02-03T00:15:14;94794.25;;;1.81;100.00
7480;BME280;3781;42.272;22.658;2023-02-03T00:17:41;94774.28;;;1.72;100.00
7480;BME280;3781;42.272;22.658;2023-02-03T00:20:08;94793.97;;;1.87;100.00
7480;BME280;3781;42.272;22.658;2023-02-03T00:22:35;94813.09;;;1.80;100.00
7480;BME280;3781;42.272;22.658;2023-02-03T00:25:04;94785.72;;;1.47;100.00
7480;BME280;3781;42.272;22.658;2023-02-03T00:27:32;94839.25;;;1.52;100.00
7480;BME280;3781;42.272;22.658;2023-02-03T00:29:58;94833.75;;;1.42;100.00
7480;BME280;3781;42.272;22.658;2023-02-03T00:32:25;94833.44;;;1.48;100.00
7480;BME280;3781;42.272;22.658;2023-02-03T00:34:52;94830.81;;;1.50;100.00
7480;BME280;3781;42.272;22.658;2023-02-03T00:37:19;94841.28;;;1.63;100.00
7480;BME280;3781;42.272;22.658;2023-02-03T00:39:47;94843.22;;;1.58;100.00
7480;BME280;3781;42.272;22.658;2023-02-03T00:42:15;94829.06;;;1.50;100.00
7480;BME280;3781;42.272;22.658;2023-02-03T00:44:42;94827.25;;;1.52;100.00
7480;BME280;3781;42.272;22.658;2023-02-03T00:47:09;94836.69;;;1.52;100.00
7480;BME280;3781;42.272;22.658;2023-02-03T00:49:35;94844.13;;;1.74;100.00
7480;BME280;3781;42.272;22.658;2023-02-03T00:52:02;94828.63;;;1.60;100.00
7480;BME280;3781;42.272;22.658;2023-02-03T00:54:29;94842.47;;;1.73;100.00
7480;BME280;3781;42.272;22.658;2023-02-03T00:56:56;94829.59;;;1.74;100.00
7480;BME280;3781;42.272;22.658;2023-02-03T00:59:24;94843.97;;;1.77;100.00
7480;BME280;3781;42.272;22.658;2023-02-03T01:01:51;94860.31;;;1.74;100.00
7480;BME280;3781;42.272;22.658;2023-02-03T01:04:18;94850.00;;;1.59;100.00
7480;BME280;3781;42.272;22.658;2023-02-03T01:06:45;94866.03;;;1.62;100.00
7480;BME280;3781;42.272;22.658;2023-02-03T01:09:11;94863.41;;;1.64;100.00
7480;BME280;3781;42.272;22.658;2023-02-03T01:11:38;94868.25;;;1.70;100.00
7480;BME280;3781;42.272;22.658;2023-02-03T01:14:05;94888.25;;;1.79;100.00
7480;BME280;3781;42.272;22.658;2023-02-03T01:16:33;94886.91;;;1.72;100.00
7480;BME280;3781;42.272;22.658;2023-02-03T01:19:02;94877.47;;;1.72;100.00
7480;BME280;3781;42.272;22.658;2023-02-03T01:21:31;94889.69;;;1.84;100.00
7480;BME280;3781;42.272;22.658;2023-02-03T01:24:00;94891.41;;;1.84;100.00
7480;BME280;3781;42.272;22.658;2023-02-03T01:26:27;94884.19;;;1.58;100.00
7480;BME280;3781;42.272;22.658;2023-02-03T01:28:56;94896.66;;;1.46;100.00
7480;BME280;3781;42.272;22.658;2023-02-03T01:31:25;94918.72;;;1.49;100.00
7480;BME280;3781;42.272;22.658;2023-02-03T01:33:53;94910.22;;;1.48;100.00
7480;BME280;3781;42.272;22.658;2023-02-03T01:36:23;94917.97;;;1.47;100.00
7480;BME280;3781;42.272;22.658;2023-02-03T01:38:50;94918.81;;;1.47;100.00
7480;BME280;3781;42.272;22.658;2023-02-03T01:41:18;94915.31;;;1.48;100.00
7480;BME280;3781;42.272;22.658;2023-02-03T01:43:47;94920.75;;;1.42;100.00
7480;BME280;3781;42.272;22.658;2023-02-03T01:46:22;94909.13;;;1.35;100.00
7480;BME280;3781;42.272;22.658;2023-02-03T01:48:50;94921.16;;;1.33;100.00
7480;BME280;3781;42.272;22.658;2023-02-03T01:51:20;94917.13;;;1.46;100.00
7480;BME280;3781;42.272;22.658;2023-02-03T01:53:47;94922.88;;;1.51;100.00
7480;BME280;3781;42.272;22.658;2023-02-03T01:56:16;94906.75;;;1.49;100.00
7480;BME280;3781;42.272;22.658;2023-02-03T01:58:45;94903.16;;;1.53;100.00
7480;BME280;3781;42.272;22.658;2023-02-03T02:01:13;94902.84;;;1.60;100.00
7480;BME280;3781;42.272;22.658;2023-02-03T02:03:41;94872.75;;;1.47;100.00
7480;BME280;3781;42.272;22.658;2023-02-03T02:06:12;94916.09;;;1.68;100.00
7480;BME280;3781;42.272;22.658;2023-02-03T02:08:43;94927.69;;;1.58;100.00
7480;BME280;3781;42.272;22.658;2023-02-03T02:11:11;94925.72;;;1.45;100.00
7480;BME280;3781;42.272;22.658;2023-02-03T02:13:38;94924.06;;;1.44;100.00
7480;BME280;3781;42.272;22.658;2023-02-03T02:16:09;94937.97;;;1.39;100.00
7480;BME280;3781;42.272;22.658;2023-02-03T02:18:55;94940.25;;;1.26;100.00
7480;BME280;3781;42.272;22.658;2023-02-03T02:21:58;94889.81;;;1.11;100.00
7480;BME280;3781;42.272;22.658;2023-02-03T02:27:35;94927.53;;;1.43;100.00
7480;BME280;3781;42.272;22.658;2023-02-03T02:33:24;94945.25;;;1.29;100.00
7480;BME280;3781;42.272;22.658;2023-02-03T02:35:57;94946.75;;;1.33;100.00
7480;BME280;3781;42.272;22.658;2023-02-03T02:38:38;94943.31;;;1.34;100.00
7480;BME280;3781;42.272;22.658;2023-02-03T02:41:10;94950.09;;;1.17;100.00
7480;BME280;3781;42.272;22.658;2023-02-03T02:43:42;94962.69;;;1.21;100.00
7480;BME280;3781;42.272;22.658;2023-02-03T02:46:13;94968.41;;;1.26;100.00
7480;BME280;3781;42.272;22.658;2023-02-03T02:48:47;94970.94;;;1.26;100.00
7480;BME280;3781;42.272;22.658;2023-02-03T02:51:16;94987.63;;;1.71;100.00
7480;BME280;3781;42.272;22.658;2023-02-03T02:53:48;94995.50;;;1.85;100.00
7480;BME280;3781;42.272;22.658;2023-02-03T02:56:17;94990.97;;;1.90;100.00
7480;BME280;3781;42.272;22.658;2023-02-03T02:58:47;94999.25;;;1.78;100.00
7480;BME280;3781;42.272;22.658;2023-02-03T03:01:14;95003.09;;;1.69;100.00
7480;BME280;3781;42.272;22.658;2023-02-03T03:03:43;95025.16;;;1.72;100.00
7480;BME280;3781;42.272;22.658;2023-02-03T03:06:14;95024.41;;;1.70;100.00
7480;BME280;3781;42.272;22.658;2023-02-03T03:08:48;95018.03;;;1.60;100.00
7480;BME280;3781;42.272;22.658;2023-02-03T03:11:16;95024.31;;;1.52;100.00
7480;BME280;3781;42.272;22.658;2023-02-03T03:13:47;95012.84;;;1.42;100.00
7480;BME280;3781;42.272;22.658;2023-02-03T03:16:15;95022.88;;;1.47;100.00
7480;BME280;3781;42.272;22.658;2023-02-03T03:18:47;95008.03;;;1.36;100.00
7480;BME280;3781;42.272;22.658;2023-02-03T03:21:19;95029.94;;;1.61;100.00
7480;BME280;3781;42.272;22.658;2023-02-03T03:23:50;94996.66;;;1.42;100.00
7480;BME280;3781;42.272;22.658;2023-02-03T03:26:23;95010.72;;;1.52;100.00
7480;BME280;3781;42.272;22.658;2023-02-03T03:28:57;95031.13;;;1.53;100.00
7480;BME280;3781;42.272;22.658;2023-02-03T03:31:26;95036.53;;;1.47;100.00
7480;BME280;3781;42.272;22.658;2023-02-03T03:33:54;95031.41;;;1.47;100.00
7480;BME280;3781;42.272;22.658;2023-02-03T03:36:24;95012.84;;;1.42;100.00
7480;BME280;3781;42.272;22.658;2023-02-03T03:38:56;95007.31;;;1.51;100.00
7480;BME280;3781;42.272;22.658;2023-02-03T03:41:31;94996.00;;;1.38;100.00
7480;BME280;3781;42.272;22.658;2023-02-03T03:44:03;94978.28;;;1.34;100.00
7480;BME280;3781;42.272;22.658;2023-02-03T03:46:34;94987.56;;;1.36;100.00
7480;BME280;3781;42.272;22.658;2023-02-03T03:49:07;94984.03;;;1.20;100.00
7480;BME280;3781;42.272;22.658;2023-02-03T03:51:39;95005.06;;;1.08;100.00
7480;BME280;3781;42.272;22.658;2023-02-03T03:54:07;94951.34;;;0.71;100.00
7480;BME280;3781;42.272;22.658;2023-02-03T03:56:38;94998.41;;;1.04;100.00
7480;BME280;3781;42.272;22.658;2023-02-03T03:59:07;95024.03;;;0.84;100.00
7480;BME280;3781;42.272;22.658;2023-02-03T04:01:37;94989.97;;;0.45;100.00
7480;BME280;3781;42.272;22.658;2023-02-03T04:04:09;95026.34;;;0.70;100.00
7480;BME280;3781;42.272;22.658;2023-02-03T04:06:37;95015.59;;;0.82;100.00
7480;BME280;3781;42.272;22.658;2023-02-03T04:09:04;94998.84;;;0.75;100.00
7480;BME280;3781;42.272;22.658;2023-02-03T04:11:31;95004.00;;;0.55;100.00
7480;BME280;3781;42.272;22.658;2023-02-03T04:14:15;95004.59;;;0.41;100.00
7480;BME280;3781;42.272;22.658;2023-02-03T04:16:42;95000.06;;;0.48;100.00
7480;BME280;3781;42.272;22.658;2023-02-03T04:19:10;95012.94;;;0.65;100.00
7480;BME280;3781;42.272;22.658;2023-02-03T04:21:37;95016.81;;;0.73;100.00
7480;BME280;3781;42.272;22.658;2023-02-03T04:24:04;95021.78;;;0.76;100.00
7480;BME280;3781;42.272;22.658;2023-02-03T04:26:31;95021.28;;;0.89;100.00
7480;BME280;3781;42.272;22.658;2023-02-03T04:28:58;95019.88;;;1.00;100.00
7480;BME280;3781;42.272;22.658;2023-02-03T04:31:25;95017.97;;;1.05;100.00
7480;BME280;3781;42.272;22.658;2023-02-03T04:33:51;95026.28;;;1.10;100.00
7480;BME280;3781;42.272;22.658;2023-02-03T04:36:19;95022.56;;;1.17;100.00
7480;BME280;3781;42.272;22.658;2023-02-03T04:38:47;95028.91;;;1.27;100.00
7480;BME280;3781;42.272;22.658;2023-02-03T04:41:14;95031.75;;;1.21;100.00
7480;BME280;3781;42.272;22.658;2023-02-03T04:43:41;95028.47;;;0.99;100.00
7480;BME280;3781;42.272;22.658;2023-02-03T04:46:07;95027.22;;;1.08;100.00
7480;BME280;3781;42.272;22.658;2023-02-03T04:48:34;95050.00;;;0.94;100.00
7480;BME280;3781;42.272;22.658;2023-02-03T04:51:02;95052.91;;;0.86;100.00
7480;BME280;3781;42.272;22.658;2023-02-03T04:53:30;95024.44;;;0.55;100.00
7480;BME280;3781;42.272;22.658;2023-02-03T04:55:57;95053.19;;;0.80;100.00
7480;BME280;3781;42.272;22.658;2023-02-03T04:58:25;95055.94;;;0.75;100.00
7480;BME280;3781;42.272;22.658;2023-02-03T05:00:52;95058.03;;;0.86;100.00
7480;BME280;3781;42.272;22.658;2023-02-03T05:03:19;95066.06;;;0.97;100.00
7480;BME280;3781;42.272;22.658;2023-02-03T05:05:46;95077.81;;;1.01;100.00
7480;BME280;3781;42.272;22.658;2023-02-03T05:08:13;95091.25;;;1.25;100.00
7480;BME280;3781;42.272;22.658;2023-02-03T05:10:41;95088.91;;;1.20;100.00
7480;BME280;3781;42.272;22.658;2023-02-03T05:13:07;95075.91;;;1.06;100.00
7480;BME280;3781;42.272;22.658;2023-02-03T05:15:34;95096.94;;;1.31;100.00
7480;BME280;3781;42.272;22.658;2023-02-03T05:18:02;95094.63;;;1.45;100.00
7480;BME280;3781;42.272;22.658;2023-02-03T05:20:29;95098.06;;;1.44;100.00
7480;BME280;3781;42.272;22.658;2023-02-03T05:22:57;95106.09;;;1.56;100.00
7480;BME280;3781;42.272;22.658;2023-02-03T05:25:23;95109.13;;;1.64;100.00
7480;BME280;3781;42.272;22.658;2023-02-03T05:27:51;95089.78;;;1.58;100.00
7480;BME280;3781;42.272;22.658;2023-02-03T05:30:18;95076.72;;;1.45;100.00
7480;BME280;3781;42.272;22.658;2023-02-03T05:32:45;95098.06;;;1.44;100.00
7480;BME280;3781;42.272;22.658;2023-02-03T05:35:12;95100.53;;;1.27;100.00
7480;BME280;3781;42.272;22.658;2023-02-03T05:37:38;95105.44;;;0.93;100.00
7480;BME280;3781;42.272;22.658;2023-02-03T05:40:06;95107.25;;;0.71;100.00
7480;BME280;3781;42.272;22.658;2023-02-03T05:42:52;95099.31;;;0.37;100.00
7480;BME280;3781;42.272;22.658;2023-02-03T05:45:19;95095.97;;;0.13;100.00
7480;BME280;3781;42.272;22.658;2023-02-03T05:47:45;95099.16;;;0.40;100.00
7480;BME280;3781;42.272;22.658;2023-02-03T05:50:12;95097.38;;;0.42;100.00
7480;BME280;3781;42.272;22.658;2023-02-03T05:52:39;95090.97;;;0.32;100.00
7480;BME280;3781;42.272;22.658;2023-02-03T05:55:06;95075.22;;;0.00;100.00
7480;BME280;3781;42.272;22.658;2023-02-03T05:57:38;95036.00;;;-0.19;100.00
7480;BME280;3781;42.272;22.658;2023-02-03T06:00:39;94945.03;;;-0.85;100.00
7480;BME280;3781;42.272;22.658;2023-02-03T06:03:06;95092.72;;;0.10;100.00
7480;BME280;3781;42.272;22.658;2023-02-03T06:05:34;95065.59;;;0.07;100.00
7480;BME280;3781;42.272;22.658;2023-02-03T06:08:05;95064.28;;;0.19;100.00
7480;BME280;3781;42.272;22.658;2023-02-03T06:10:33;95103.44;;;0.39;100.00
7480;BME280;3781;42.272;22.658;2023-02-03T06:13:07;95099.16;;;0.40;100.00
7480;BME280;3781;42.272;22.658;2023-02-03T06:15:35;95087.94;;;0.64;100.00
7480;BME280;3781;42.272;22.658;2023-02-03T06:18:02;95094.19;;;0.97;100.00
7480;BME280;3781;42.272;22.658;2023-02-03T06:20:29;95094.28;;;0.96;100.00
7480;BME280;3781;42.272;22.658;2023-02-03T06:22:56;95096.88;;;0.94;100.00
7480;BME280;3781;42.272;22.658;2023-02-03T06:25:23;95087.00;;;1.63;100.00
7480;BME280;3781;42.272;22.658;2023-02-03T06:27:50;95092.16;;;2.34;100.00
7480;BME280;3781;42.272;22.658;2023-02-03T06:30:17;95094.84;;;3.17;97.84
7480;BME280;3781;42.272;22.658;2023-02-03T06:32:46;95101.53;;;4.00;86.86
7480;BME280;3781;42.272;22.658;2023-02-03T06:35:13;95108.84;;;4.37;83.32
7480;BME280;3781;42.272;22.658;2023-02-03T06:37:40;95116.00;;;4.78;79.37
7480;BME280;3781;42.272;22.658;2023-02-03T06:40:09;95114.38;;;5.34;75.45
7480;BME280;3781;42.272;22.658;2023-02-03T06:42:36;95122.91;;;5.21;73.81
7480;BME280;3781;42.272;22.658;2023-02-03T06:45:04;95138.78;;;5.43;69.33
7480;BME280;3781;42.272;22.658;2023-02-03T06:47:31;95138.56;;;5.74;68.79
7480;BME280;3781;42.272;22.658;2023-02-03T06:49:59;95128.84;;;5.65;67.95
7480;BME280;3781;42.272;22.658;2023-02-03T06:52:26;95138.16;;;6.63;66.51
7480;BME280;3781;42.272;22.658;2023-02-03T06:54:52;95142.81;;;7.49;63.24
7480;BME280;3781;42.272;22.658;2023-02-03T06:57:19;95149.59;;;7.13;58.69
7480;BME280;3781;42.272;22.658;2023-02-03T06:59:46;95125.13;;;6.92;59.41
7480;BME280;3781;42.272;22.658;2023-02-03T07:02:13;95150.22;;;8.17;57.82
7480;BME280;3781;42.272;22.658;2023-02-03T07:04:39;95148.19;;;9.17;54.01
7480;BME280;3781;42.272;22.658;2023-02-03T07:07:10;95155.44;;;10.70;49.39
7480;BME280;3781;42.272;22.658;2023-02-03T07:09:37;95164.75;;;11.67;43.50
7480;BME280;3781;42.272;22.658;2023-02-03T07:12:04;95155.94;;;11.27;43.79
7480;BME280;3781;42.272;22.658;2023-02-03T07:14:31;95162.44;;;10.90;46.13
7480;BME280;3781;42.272;22.658;2023-02-03T07:17:00;95162.38;;;9.24;47.53
7480;BME280;3781;42.272;22.658;2023-02-03T07:19:27;95162.22;;;7.17;51.12
7480;BME280;3781;42.272;22.658;2023-02-03T07:21:53;95157.22;;;7.14;52.01
7480;BME280;3781;42.272;22.658;2023-02-03T07:24:21;95153.56;;;7.69;51.57
7480;BME280;3781;42.272;22.658;2023-02-03T07:26:48;95156.16;;;9.02;49.30
7480;BME280;3781;42.272;22.658;2023-02-03T07:29:15;95164.91;;;10.37;47.05
7480;BME280;3781;42.272;22.658;2023-02-03T07:31:42;95154.16;;;11.27;45.90
7480;BME280;3781;42.272;22.658;2023-02-03T07:34:09;95170.00;;;13.07;43.39
7480;BME280;3781;42.272;22.658;2023-02-03T07:36:35;95176.91;;;13.66;40.15
7480;BME280;3781;42.272;22.658;2023-02-03T07:39:02;95167.81;;;13.12;40.50
7480;BME280;3781;42.272;22.658;2023-02-03T07:41:31;95167.22;;;12.90;40.83
7480;BME280;3781;42.272;22.658;2023-02-03T07:43:57;95153.22;;;10.97;42.47
7480;BME280;3781;42.272;22.658;2023-02-03T07:46:24;95166.78;;;8.14;46.01
7480;BME280;3781;42.272;22.658;2023-02-03T07:48:51;95178.28;;;6.55;48.27
7480;BME280;3781;42.272;22.658;2023-02-03T07:51:17;95152.56;;;6.27;53.62
7480;BME280;3781;42.272;22.658;2023-02-03T07:53:44;95162.69;;;6.30;56.99
7480;BME280;3781;42.272;22.658;2023-02-03T07:56:11;95180.97;;;6.13;56.56
7480;BME280;3781;42.272;22.658;2023-02-03T07:58:39;95155.88;;;5.44;58.60
7480;BME280;3781;42.272;22.658;2023-02-03T08:01:10;95175.22;;;5.65;63.59
7480;BME280;3781;42.272;22.658;2023-02-03T08:03:37;95177.41;;;5.57;64.56
7480;BME280;3781;42.272;22.658;2023-02-03T08:06:04;95163.66;;;5.86;63.79
7480;BME280;3781;42.272;22.658;2023-02-03T08:08:31;95179.47;;;5.80;64.17
7480;BME280;3781;42.272;22.658;2023-02-03T08:10:58;95172.56;;;5.67;65.36
7480;BME280;3781;42.272;22.658;2023-02-03T08:13:25;95176.53;;;7.60;59.91
7480;BME280;3781;42.272;22.658;2023-02-03T08:15:53;95172.41;;;7.96;56.53
7480;BME280;3781;42.272;22.658;2023-02-03T08:18:20;95175.97;;;8.31;52.90
7480;BME280;3781;42.272;22.658;2023-02-03T08:20:46;95173.75;;;9.45;50.28
7480;BME280;3781;42.272;22.658;2023-02-03T08:23:13;95173.84;;;10.55;43.45
7480;BME280;3781;42.272;22.658;2023-02-03T08:25:40;95179.31;;;11.70;42.93
7480;BME280;3781;42.272;22.658;2023-02-03T08:28:07;95175.06;;;12.20;40.13
7480;BME280;3781;42.272;22.658;2023-02-03T08:30:34;95164.69;;;12.69;40.51
7480;BME280;3781;42.272;22.658;2023-02-03T08:33:02;95173.66;;;10.36;41.13
7480;BME280;3781;42.272;22.658;2023-02-03T08:35:29;95172.78;;;10.03;43.53
7480;BME280;3781;42.272;22.658;2023-02-03T08:37:56;95165.03;;;10.25;44.11
7480;BME280;3781;42.272;22.658;2023-02-03T08:40:23;95176.41;;;9.78;42.65
7480;BME280;3781;42.272;22.658;2023-02-03T08:42:49;95171.34;;;9.87;43.82
7480;BME280;3781;42.272;22.658;2023-02-03T08:45:16;95170.78;;;10.61;42.63
7480;BME280;3781;42.272;22.658;2023-02-03T08:47:43;95177.19;;;10.13;42.57
7480;BME280;3781;42.272;22.658;2023-02-03T08:50:11;95181.75;;;10.10;43.35
7480;BME280;3781;42.272;22.658;2023-02-03T08:52:38;95197.19;;;9.89;42.25
7480;BME280;3781;42.272;22.658;2023-02-03T08:55:05;95200.25;;;8.90;44.09
7480;BME280;3781;42.272;22.658;2023-02-03T08:57:32;95196.38;;;7.98;47.26
7480;BME280;3781;42.272;22.658;2023-02-03T08:59:59;95203.41;;;7.71;47.02
7480;BME280;3781;42.272;22.658;2023-02-03T09:02:26;95204.63;;;7.52;48.47
7480;BME280;3781;42.272;22.658;2023-02-03T09:04:53;95206.38;;;7.00;50.73
7480;BME280;3781;42.272;22.658;2023-02-03T09:07:21;95208.38;;;6.14;49.34
7480;BME280;3781;42.272;22.658;2023-02-03T09:09:48;95202.28;;;5.72;52.20
7480;BME280;3781;42.272;22.658;2023-02-03T09:12:14;95209.47;;;5.67;51.93
7480;BME280;3781;42.272;22.658;2023-02-03T09:14:41;95183.66;;;5.39;51.68
7480;BME280;3781;42.272;22.658;2023-02-03T09:17:08;95210.47;;;5.35;54.99
7480;BME280;3781;42.272;22.658;2023-02-03T09:19:37;95211.41;;;5.34;55.68
7480;BME280;3781;42.272;22.658;2023-02-03T09:22:04;95206.28;;;5.48;54.40
7480;BME280;3781;42.272;22.658;2023-02-03T09:24:32;95230.13;;;5.95;52.64
7480;BME280;3781;42.272;22.658;2023-02-03T09:26:59;95221.72;;;5.78;51.91
7480;BME280;3781;42.272;22.658;2023-02-03T09:29:26;95233.94;;;5.74;53.34
7480;BME280;3781;42.272;22.658;2023-02-03T09:31:53;95214.78;;;5.64;53.00
7480;BME280;3781;42.272;22.658;2023-02-03T09:34:20;95224.34;;;7.02;50.34
7480;BME280;3781;42.272;22.658;2023-02-03T09:36:47;95212.72;;;7.86;47.96
7480;BME280;3781;42.272;22.658;2023-02-03T09:39:14;95229.56;;;8.90;45.27
7480;BME280;3781;42.272;22.658;2023-02-03T09:42:11;95207.81;;;9.97;43.47
7480;BME280;3781;42.272;22.658;2023-02-03T09:44:44;95224.78;;;11.12;41.12
7480;BME280;3781;42.272;22.658;2023-02-03T09:47:15;95231.28;;;11.81;39.00
7480;BME280;3781;42.272;22.658;2023-02-03T09:49:47;95226.78;;;12.34;38.66
7480;BME280;3781;42.272;22.658;2023-02-03T09:52:18;95206.03;;;10.97;39.45
7480;BME280;3781;42.272;22.658;2023-02-03T09:54:50;95228.56;;;11.82;39.83
7480;BME280;3781;42.272;22.658;2023-02-03T09:57:22;95213.97;;;13.69;34.67
7480;BME280;3781;42.272;22.658;2023-02-03T09:59:49;95227.63;;;14.84;34.02
7480;BME280;3781;42.272;22.658;2023-02-03T10:02:37;95217.00;;;15.58;32.94
7480;BME280;3781;42.272;22.658;2023-02-03T10:05:14;95219.50;;;16.46;30.48
7480;BME280;3781;42.272;22.658;2023-02-03T10:07:52;95181.91;;;18.35;29.71
7480;BME280;3781;42.272;22.658;2023-02-03T10:10:34;95196.84;;;16.63;30.45
7480;BME280;3781;42.272;22.658;2023-02-03T10:13:20;95200.03;;;14.72;31.75
7480;BME280;3781;42.272;22.658;2023-02-03T10:16:03;95200.03;;;12.62;35.17
7480;BME280;3781;42.272;22.658;2023-02-03T10:18:38;95188.53;;;11.31;36.95
7480;BME280;3781;42.272;22.658;2023-02-03T10:21:12;95186.28;;;11.06;37.81
7480;BME280;3781;42.272;22.658;2023-02-03T10:23:42;95176.41;;;10.89;39.38
7480;BME280;3781;42.272;22.658;2023-02-03T10:26:14;95183.38;;;11.52;37.51
7480;BME280;3781;42.272;22.658;2023-02-03T10:28:47;95184.75;;;11.03;38.03
7480;BME280;3781;42.272;22.658;2023-02-03T10:31:19;95191.31;;;10.76;39.46
7480;BME280;3781;42.272;22.658;2023-02-03T10:33:46;95172.69;;;12.86;35.33
7480;BME280;3781;42.272;22.658;2023-02-03T10:36:18;95186.34;;;15.05;33.95
7480;BME280;3781;42.272;22.658;2023-02-03T10:38:53;95186.91;;;14.45;32.70
7480;BME280;3781;42.272;22.658;2023-02-03T10:41:23;95174.41;;;12.27;34.88
7480;BME280;3781;42.272;22.658;2023-02-03T10:43:52;95177.38;;;12.23;36.04
7480;BME280;3781;42.272;22.658;2023-02-03T10:46:25;95177.28;;;11.62;36.81
7480;BME280;3781;42.272;22.658;2023-02-03T10:48:52;95179.50;;;10.83;37.88
7480;BME280;3781;42.272;22.658;2023-02-03T10:51:21;95187.34;;;10.49;38.36
7480;BME280;3781;42.272;22.658;2023-02-03T10:53:49;95180.88;;;12.02;38.46
7480;BME280;3781;42.272;22.658;2023-02-03T10:56:20;95189.53;;;13.60;35.14
7480;BME280;3781;42.272;22.658;2023-02-03T10:58:50;95182.38;;;13.63;33.88
7480;BME280;3781;42.272;22.658;2023-02-03T11:01:20;95174.53;;;11.95;36.34
7480;BME280;3781;42.272;22.658;2023-02-03T11:03:57;95177.41;;;10.10;37.58
7480;BME280;3781;42.272;22.658;2023-02-03T11:06:25;95183.31;;;8.12;40.34
7480;BME280;3781;42.272;22.658;2023-02-03T11:08:52;95178.56;;;7.68;41.95
7480;BME280;3781;42.272;22.658;2023-02-03T11:11:21;95178.19;;;7.87;42.59
7480;BME280;3781;42.272;22.658;2023-02-03T11:14:09;95166.22;;;10.43;38.31
7480;BME280;3781;42.272;22.658;2023-02-03T11:16:38;95146.91;;;13.89;32.42
7480;BME280;3781;42.272;22.658;2023-02-03T11:19:06;95162.56;;;15.17;30.11
7480;BME280;3781;42.272;22.658;2023-02-03T11:21:43;95152.44;;;13.47;30.11
7480;BME280;3781;42.272;22.658;2023-02-03T11:24:17;95148.88;;;13.20;32.50
7480;BME280;3781;42.272;22.658;2023-02-03T11:26:47;95140.31;;;13.85;32.46
7480;BME280;3781;42.272;22.658;2023-02-03T11:29:18;95136.91;;;14.21;31.39
7480;BME280;3781;42.272;22.658;2023-02-03T11:31:48;95149.31;;;12.66;30.41
7480;BME280;3781;42.272;22.658;2023-02-03T11:34:18;95133.34;;;11.07;33.45
7480;BME280;3781;42.272;22.658;2023-02-03T11:36:48;95128.28;;;10.63;35.37
7480;BME280;3781;42.272;22.658;2023-02-03T11:39:33;95124.69;;;10.32;37.14
7480;BME280;3781;42.272;22.658;2023-02-03T11:42:01;95131.28;;;10.36;37.20
7480;BME280;3781;42.272;22.658;2023-02-03T11:44:29;95133.72;;;11.75;35.46
7480;BME280;3781;42.272;22.658;2023-02-03T11:47:01;95146.13;;;13.40;32.12
7480;BME280;3781;42.272;22.658;2023-02-03T11:49:56;95128.25;;;13.74;31.63
7480;BME280;3781;42.272;22.658;2023-02-03T11:52:47;95128.81;;;13.58;31.19
7480;BME280;3781;42.272;22.658;2023-02-03T11:55:22;95105.78;;;13.16;32.07
7480;BME280;3781;42.272;22.658;2023-02-03T11:58:05;95123.66;;;11.29;34.43
7480;BME280;3781;42.272;22.658;2023-02-03T12:00:45;95136.97;;;9.51;36.87
7480;BME280;3781;42.272;22.658;2023-02-03T12:06:51;95126.44;;;10.20;35.25
7480;BME280;3781;42.272;22.658;2023-02-03T12:09:28;95118.91;;;12.36;31.64
7480;BME280;3781;42.272;22.658;2023-02-03T12:14:56;95128.53;;;11.23;34.76
7480;BME280;3781;42.272;22.658;2023-02-03T12:17:40;95135.56;;;9.12;35.88
7480;BME280;3781;42.272;22.658;2023-02-03T12:20:22;95103.25;;;11.46;34.50
7480;BME280;3781;42.272;22.658;2023-02-03T12:22:58;95131.22;;;13.98;29.87
7480;BME280;3781;42.272;22.658;2023-02-03T12:25:36;95130.88;;;12.39;30.05
7480;BME280;3781;42.272;22.658;2023-02-03T12:28:15;95137.78;;;10.30;33.72
7480;BME280;3781;42.272;22.658;2023-02-03T12:30:47;95118.41;;;9.79;36.68
7480;BME280;3781;42.272;22.658;2023-02-03T12:33:19;95138.38;;;9.33;36.83
7480;BME280;3781;42.272;22.658;2023-02-03T12:35:50;95129.78;;;7.89;40.70
7480;BME280;3781;42.272;22.658;2023-02-03T12:38:27;95124.59;;;7.13;45.17
7480;BME280;3781;42.272;22.658;2023-02-03T12:40:59;95097.09;;;6.34;47.52
7480;BME280;3781;42.272;22.658;2023-02-03T12:43:31;95118.72;;;6.04;45.96
7480;BME280;3781;42.272;22.658;2023-02-03T12:46:04;95120.72;;;6.14;46.67
7480;BME280;3781;42.272;22.658;2023-02-03T12:48:41;95113.63;;;7.22;44.71
7480;BME280;3781;42.272;22.658;2023-02-03T12:51:13;95114.63;;;8.08;43.74
7480;BME280;3781;42.272;22.658;2023-02-03T12:53:47;95094.72;;;8.57;42.54
7480;BME280;3781;42.272;22.658;2023-02-03T12:56:22;95096.88;;;7.91;42.12
7480;BME280;3781;42.272;22.658;2023-02-03T12:58:54;95100.41;;;7.14;43.73
7480;BME280;3781;42.272;22.658;2023-02-03T13:01:23;95088.25;;;6.50;44.04
7480;BME280;3781;42.272;22.658;2023-02-03T13:03:57;95094.16;;;6.26;45.90
7480;BME280;3781;42.272;22.658;2023-02-03T13:06:30;95098.53;;;6.64;43.47
7480;BME280;3781;42.272;22.658;2023-02-03T13:09:02;95085.66;;;8.03;38.44
7480;BME280;3781;42.272;22.658;2023-02-03T13:11:35;95098.38;;;10.25;35.99
7480;BME280;3781;42.272;22.658;2023-02-03T13:14:11;95094.78;;;10.48;36.27
7480;BME280;3781;42.272;22.658;2023-02-03T13:16:42;95109.09;;;10.10;36.68
7480;BME280;3781;42.272;22.658;2023-02-03T13:19:16;95062.72;;;10.27;36.51
7480;BME280;3781;42.272;22.658;2023-02-03T13:21:47;95095.63;;;11.12;35.44
7480;BME280;3781;42.272;22.658;2023-02-03T13:24:15;95088.34;;;11.27;35.36
7480;BME280;3781;42.272;22.658;2023-02-03T13:27:01;95095.59;;;10.92;35.89
7480;BME280;3781;42.272;22.658;2023-02-03T13:29:59;95073.03;;;11.33;35.21
7480;BME280;3781;42.272;22.658;2023-02-03T13:32:40;95086.81;;;11.45;35.44
7480;BME280;3781;42.272;22.658;2023-02-03T13:35:38;95055.50;;;11.26;34.36
7480;BME280;3781;42.272;22.658;2023-02-03T13:38:27;95091.84;;;11.37;35.36
7480;BME280;3781;42.272;22.658;2023-02-03T13:41:03;95093.47;;;11.79;33.46